sensor_id;sensor_type;location;lat;lon;timestamp;pressure;altitude;pressure_sealevel;temperature;humidity
80102;BME280;69407;44.966;19.622;2023-11-21T00:01:57;100564.16;;;7.51;100.00
80102;BME280;69407;44.966;19.622;2023-11-21T00:04:23;100568.34;;;7.57;100.00
80102;BME280;69407;44.966;19.622;2023-11-21T00:06:48;100572.84;;;7.78;100.00
80102;BME280;69407;44.966;19.622;2023-11-21T00:09:15;100575.84;;;7.43;100.00
80102;BME280;69407;44.966;19.622;2023-11-21T00:11:41;100567.66;;;7.52;100.00
80102;BME280;69407;44.966;19.622;2023-11-21T00:14:07;100573.38;;;7.63;100.00
80102;BME280;69407;44.966;19.622;2023-11-21T00:16:33;100568.22;;;7.60;100.00
80102;BME280;69407;44.966;19.622;2023-11-21T00:18:59;100566.66;;;7.54;100.00
80102;BME280;69407;44.966;19.622;2023-11-21T00:21:24;100575.31;;;7.58;100.00
80102;BME280;69407;44.966;19.622;2023-11-21T00:23:50;100572.03;;;7.51;100.00
80102;BME280;69407;44.966;19.622;2023-11-21T00:26:15;100579.16;;;7.48;100.00
80102;BME280;69407;44.966;19.622;2023-11-21T00:28:41;100578.53;;;7.66;100.00
80102;BME280;69407;44.966;19.622;2023-11-21T00:31:06;100582.78;;;7.70;100.00
80102;BME280;69407;44.966;19.622;2023-11-21T00:33:32;100587.22;;;7.68;100.00
80102;BME280;69407;44.966;19.622;2023-11-21T00:35:57;100581.72;;;7.76;100.00
80102;BME280;69407;44.966;19.622;2023-11-21T00:38:23;100581.84;;;7.71;100.00
80102;BME280;69407;44.966;19.622;2023-11-21T00:40:49;100584.38;;;7.74;100.00
80102;BME280;69407;44.966;19.622;2023-11-21T00:43:15;100579.34;;;7.68;100.00
80102;BME280;69407;44.966;19.622;2023-11-21T00:45:40;100582.59;;;7.75;100.00
80102;BME280;69407;44.966;19.622;2023-11-21T00:48:06;100580.88;;;7.74;100.00
80102;BME280;69407;44.966;19.622;2023-11-21T00:50:31;100583.88;;;7.89;100.00
80102;BME280;69407;44.966;19.622;2023-11-21T00:52:57;100580.53;;;7.84;100.00
80102;BME280;69407;44.966;19.622;2023-11-21T00:55:22;100576.97;;;7.85;100.00
80102;BME280;69407;44.966;19.622;2023-11-21T00:57:48;100583.75;;;7.68;100.00
80102;BME280;69407;44.966;19.622;2023-11-21T01:00:14;100577.19;;;7.79;100.00
80102;BME280;69407;44.966;19.622;2023-11-21T01:02:45;100575.19;;;7.86;100.00
80102;BME280;69407;44.966;19.622;2023-11-21T01:05:11;100573.47;;;7.85;100.00
80102;BME280;69407;44.966;19.622;2023-11-21T01:07:37;100568.34;;;7.82;100.00
80102;BME280;69407;44.966;19.622;2023-11-21T01:10:05;100555.94;;;7.85;100.00
80102;BME280;69407;44.966;19.622;2023-11-21T01:12:34;100548.69;;;7.67;100.00
80102;BME280;69407;44.966;19.622;2023-11-21T01:15:00;100538.66;;;7.78;100.00
80102;BME280;69407;44.966;19.622;2023-11-21T01:17:26;100538.38;;;7.61;100.00
80102;BME280;69407;44.966;19.622;2023-11-21T01:19:52;100537.81;;;7.78;100.00
80102;BME280;69407;44.966;19.622;2023-11-21T01:22:17;100539.72;;;7.73;100.00
80102;BME280;69407;44.966;19.622;2023-11-21T01:24:47;100538.50;;;7.58;100.00
80102;BME280;69407;44.966;19.622;2023-11-21T01:27:13;100534.47;;;7.48;100.00
80102;BME280;69407;44.966;19.622;2023-11-21T01:29:38;100536.09;;;7.52;100.00
80102;BME280;69407;44.966;19.622;2023-11-21T01:32:04;100533.22;;;7.58;100.00
80102;BME280;69407;44.966;19.622;2023-11-21T01:34:29;100528.22;;;7.75;100.00
80102;BME280;69407;44.966;19.622;2023-11-21T01:36:56;100528.47;;;7.69;100.00
80102;BME280;69407;44.966;19.622;2023-11-21T01:39:21;100524.75;;;7.75;100.00
80102;BME280;69407;44.966;19.622;2023-11-21T01:41:50;100536.03;;;7.53;100.00
80102;BME280;69407;44.966;19.622;2023-11-21T01:44:17;100543.81;;;7.56;100.00
80102;BME280;69407;44.966;19.622;2023-11-21T01:46:45;100542.34;;;7.73;100.00
80102;BME280;69407;44.966;19.622;2023-11-21T01:49:11;100534.09;;;7.58;100.00
80102;BME280;69407;44.966;19.622;2023-11-21T01:51:39;100533.88;;;7.40;100.00
80102;BME280;69407;44.966;19.622;2023-11-21T01:54:06;100526.53;;;7.23;100.00
80102;BME280;69407;44.966;19.622;2023-11-21T01:56:32;100512.69;;;7.44;100.00
80102;BME280;69407;44.966;19.622;2023-11-21T01:58:58;100518.91;;;7.67;100.00
80102;BME280;69407;44.966;19.622;2023-11-21T02:01:23;100518.91;;;7.67;100.00
80102;BME280;69407;44.966;19.622;2023-11-21T02:03:51;100520.31;;;7.77;100.00
80102;BME280;69407;44.966;19.622;2023-11-21T02:06:16;100510.91;;;7.45;100.00
80102;BME280;69407;44.966;19.622;2023-11-21T02:08:42;100507.19;;;7.50;100.00
80102;BME280;69407;44.966;19.622;2023-11-21T02:11:09;100507.38;;;7.46;100.00
80102;BME280;69407;44.966;19.622;2023-11-21T02:13:38;100500.69;;;7.35;100.00
80102;BME280;69407;44.966;19.622;2023-11-21T02:16:04;100498.19;;;7.57;100.00
80102;BME280;69407;44.966;19.622;2023-11-21T02:18:31;100490.91;;;7.41;100.00
80102;BME280;69407;44.966;19.622;2023-11-21T02:20:56;100487.66;;;7.32;100.00
80102;BME280;69407;44.966;19.622;2023-11-21T02:23:22;100485.91;;;7.33;100.00
80102;BME280;69407;44.966;19.622;2023-11-21T02:25:48;100481.97;;;7.20;100.00
80102;BME280;69407;44.966;19.622;2023-11-21T02:28:14;100464.13;;;7.04;100.00
80102;BME280;69407;44.966;19.622;2023-11-21T02:30:41;100473.56;;;6.84;100.00
80102;BME280;69407;44.966;19.622;2023-11-21T02:33:07;100469.22;;;6.83;100.00
80102;BME280;69407;44.966;19.622;2023-11-21T02:35:33;100471.72;;;6.86;100.00
80102;BME280;69407;44.966;19.622;2023-11-21T02:38:00;100458.94;;;7.01;100.00
80102;BME280;69407;44.966;19.622;2023-11-21T02:40:25;100463.38;;;6.99;100.00
80102;BME280;69407;44.966;19.622;2023-11-21T02:42:52;100461.19;;;7.12;100.00
80102;BME280;69407;44.966;19.622;2023-11-21T02:45:19;100464.22;;;7.26;100.00
80102;BME280;69407;44.966;19.622;2023-11-21T02:47:46;100463.78;;;7.14;100.00
80102;BME280;69407;44.966;19.622;2023-11-21T02:50:12;100479.28;;;7.21;100.00
80102;BME280;69407;44.966;19.622;2023-11-21T02:52:38;100491.09;;;6.83;100.00
80102;BME280;69407;44.966;19.622;2023-11-21T02:55:05;100487.34;;;7.42;100.00
80102;BME280;69407;44.966;19.622;2023-11-21T02:57:32;100484.66;;;7.18;100.00
80102;BME280;69407;44.966;19.622;2023-11-21T02:59:59;100479.97;;;7.26;100.00
80102;BME280;69407;44.966;19.622;2023-11-21T03:02:26;100478.09;;;7.05;100.00
80102;BME280;69407;44.966;19.622;2023-11-21T03:04:52;100474.41;;;7.35;100.00
80102;BME280;69407;44.966;19.622;2023-11-21T03:07:17;100475.69;;;7.49;100.00
80102;BME280;69407;44.966;19.622;2023-11-21T03:09:47;100472.09;;;7.26;100.00
80102;BME280;69407;44.966;19.622;2023-11-21T03:12:12;100465.97;;;7.27;100.00
80102;BME280;69407;44.966;19.622;2023-11-21T03:14:39;100462.97;;;7.37;100.00
80102;BME280;69407;44.966;19.622;2023-11-21T03:17:04;100452.56;;;7.09;100.00
80102;BME280;69407;44.966;19.622;2023-11-21T03:19:31;100450.69;;;7.12;100.00
80102;BME280;69407;44.966;19.622;2023-11-21T03:21:56;100446.56;;;7.05;100.00
80102;BME280;69407;44.966;19.622;2023-11-21T03:24:21;100456.47;;;6.97;100.00
80102;BME280;69407;44.966;19.622;2023-11-21T03:26:48;100446.78;;;6.99;100.00
80102;BME280;69407;44.966;19.622;2023-11-21T03:29:13;100438.47;;;7.11;100.00
80102;BME280;69407;44.966;19.622;2023-11-21T03:31:40;100441.38;;;7.03;100.00
80102;BME280;69407;44.966;19.622;2023-11-21T03:34:06;100448.38;;;6.76;100.00
80102;BME280;69407;44.966;19.622;2023-11-21T03:36:31;100446.63;;;6.77;100.00
80102;BME280;69407;44.966;19.622;2023-11-21T03:38:57;100444.88;;;7.02;100.00
80102;BME280;69407;44.966;19.622;2023-11-21T03:41:22;100438.78;;;7.02;100.00
80102;BME280;69407;44.966;19.622;2023-11-21T03:43:47;100434.06;;;7.12;100.00
80102;BME280;69407;44.966;19.622;2023-11-21T03:46:13;100439.69;;;7.01;100.00
80102;BME280;69407;44.966;19.622;2023-11-21T03:48:39;100434.59;;;6.96;100.00
80102;BME280;69407;44.966;19.622;2023-11-21T03:51:04;100429.25;;;6.99;100.00
80102;BME280;69407;44.966;19.622;2023-11-21T03:53:30;100426.66;;;6.98;100.00
80102;BME280;69407;44.966;19.622;2023-11-21T03:55:55;100425.63;;;7.03;100.00
80102;BME280;69407;44.966;19.622;2023-11-21T03:58:21;100431.78;;;7.27;100.00
80102;BME280;69407;44.966;19.622;2023-11-21T04:00:47;100437.19;;;7.48;100.00
80102;BME280;69407;44.966;19.622;2023-11-21T04:03:14;100440.59;;;7.50;100.00
80102;BME280;69407;44.966;19.622;2023-11-21T04:05:40;100429.59;;;7.15;100.00
80102;BME280;69407;44.966;19.622;2023-11-21T04:08:06;100428.31;;;7.27;100.00
80102;BME280;69407;44.966;19.622;2023-11-21T04:10:32;100431.19;;;7.19;100.00
80102;BME280;69407;44.966;19.622;2023-11-21T04:12:58;100436.50;;;7.18;100.00
80102;BME280;69407;44.966;19.622;2023-11-21T04:15:23;100435.28;;;7.28;100.00
80102;BME280;69407;44.966;19.622;2023-11-21T04:17:49;100437.06;;;7.51;100.00
80102;BME280;69407;44.966;19.622;2023-11-21T04:20:14;100439.38;;;7.35;100.00
80102;BME280;69407;44.966;19.622;2023-11-21T04:22:41;100444.53;;;7.13;100.00
80102;BME280;69407;44.966;19.622;2023-11-21T04:25:16;100433.53;;;7.02;100.00
80102;BME280;69407;44.966;19.622;2023-11-21T04:27:44;100424.81;;;7.51;100.00
80102;BME280;69407;44.966;19.622;2023-11-21T04:30:11;100427.38;;;7.03;100.00
80102;BME280;69407;44.966;19.622;2023-11-21T04:32:37;100434.78;;;7.17;100.00
80102;BME280;69407;44.966;19.622;2023-11-21T04:35:04;100424.41;;;7.12;100.00
80102;BME280;69407;44.966;19.622;2023-11-21T04:37:30;100424.81;;;6.75;100.00
80102;BME280;69407;44.966;19.622;2023-11-21T04:39:55;100428.31;;;7.00;100.00
80102;BME280;69407;44.966;19.622;2023-11-21T04:42:21;100424.69;;;7.29;100.00
80102;BME280;69407;44.966;19.622;2023-11-21T04:44:47;100429.91;;;7.31;100.00
80102;BME280;69407;44.966;19.622;2023-11-21T04:47:12;100428.69;;;6.90;100.00
80102;BME280;69407;44.966;19.622;2023-11-21T04:49:42;100421.63;;;6.92;100.00
80102;BME280;69407;44.966;19.622;2023-11-21T04:52:08;100423.66;;;6.84;100.00
80102;BME280;69407;44.966;19.622;2023-11-21T04:54:35;100422.78;;;6.83;100.00
80102;BME280;69407;44.966;19.622;2023-11-21T04:57:00;100428.81;;;6.60;100.00
80102;BME280;69407;44.966;19.622;2023-11-21T04:59:26;100424.44;;;6.33;100.00
80102;BME280;69407;44.966;19.622;2023-11-21T05:01:53;100420.22;;;6.55;100.00
80102;BME280;69407;44.966;19.622;2023-11-21T05:04:19;100419.09;;;6.89;100.00
80102;BME280;69407;44.966;19.622;2023-11-21T05:06:44;100420.34;;;7.03;100.00
80102;BME280;69407;44.966;19.622;2023-11-21T05:09:11;100412.31;;;7.08;100.00
80102;BME280;69407;44.966;19.622;2023-11-21T05:11:37;100410.78;;;7.01;100.00
80102;BME280;69407;44.966;19.622;2023-11-21T05:14:03;100412.00;;;7.17;100.00
80102;BME280;69407;44.966;19.622;2023-11-21T05:16:30;100411.88;;;7.20;100.00
80102;BME280;69407;44.966;19.622;2023-11-21T05:18:56;100405.28;;;7.09;100.00
80102;BME280;69407;44.966;19.622;2023-11-21T05:21:26;100404.25;;;7.13;100.00
80102;BME280;69407;44.966;19.622;2023-11-21T05:23:52;100401.19;;;7.25;100.00
80102;BME280;69407;44.966;19.622;2023-11-21T05:26:17;100402.41;;;7.16;100.00
80102;BME280;69407;44.966;19.622;2023-11-21T05:28:43;100395.28;;;7.43;100.00
80102;BME280;69407;44.966;19.622;2023-11-21T05:31:08;100388.84;;;7.52;100.00
80102;BME280;69407;44.966;19.622;2023-11-21T05:33:34;100377.94;;;7.38;100.00
80102;BME280;69407;44.966;19.622;2023-11-21T05:35:59;100379.91;;;7.32;100.00
80102;BME280;69407;44.966;19.622;2023-11-21T05:38:25;100386.50;;;7.19;100.00
80102;BME280;69407;44.966;19.622;2023-11-21T05:40:51;100395.38;;;6.92;100.00
80102;BME280;69407;44.966;19.622;2023-11-21T05:43:16;100398.25;;;7.09;100.00
80102;BME280;69407;44.966;19.622;2023-11-21T05:45:42;100386.94;;;7.32;100.00
80102;BME280;69407;44.966;19.622;2023-11-21T05:48:07;100398.78;;;6.94;100.00
80102;BME280;69407;44.966;19.622;2023-11-21T05:50:33;100405.25;;;6.84;100.00
80102;BME280;69407;44.966;19.622;2023-11-21T05:52:58;100397.22;;;7.13;100.00
80102;BME280;69407;44.966;19.622;2023-11-21T05:55:26;100398.50;;;7.26;100.00
80102;BME280;69407;44.966;19.622;2023-11-21T05:57:51;100405.22;;;7.10;100.00
80102;BME280;69407;44.966;19.622;2023-11-21T06:00:17;100400.00;;;7.33;100.00
80102;BME280;69407;44.966;19.622;2023-11-21T06:02:50;100402.34;;;7.18;100.00
80102;BME280;69407;44.966;19.622;2023-11-21T06:05:18;100397.94;;;7.18;100.00
80102;BME280;69407;44.966;19.622;2023-11-21T06:07:44;100391.44;;;7.28;100.00
80102;BME280;69407;44.966;19.622;2023-11-21T06:10:11;100391.78;;;7.19;100.00
80102;BME280;69407;44.966;19.622;2023-11-21T06:12:38;100382.66;;;7.29;100.00
80102;BME280;69407;44.966;19.622;2023-11-21T06:15:06;100387.41;;;7.67;100.00
80102;BME280;69407;44.966;19.622;2023-11-21T06:17:33;100383.13;;;7.64;100.00
80102;BME280;69407;44.966;19.622;2023-11-21T06:20:03;100368.75;;;7.73;100.00
80102;BME280;69407;44.966;19.622;2023-11-21T06:22:37;100371.22;;;7.54;100.00
80102;BME280;69407;44.966;19.622;2023-11-21T06:25:03;100378.72;;;7.41;100.00
80102;BME280;69407;44.966;19.622;2023-11-21T06:27:36;100376.69;;;7.71;100.00
80102;BME280;69407;44.966;19.622;2023-11-21T06:30:02;100382.88;;;7.47;100.00
80102;BME280;69407;44.966;19.622;2023-11-21T06:32:31;100394.00;;;6.80;100.00
80102;BME280;69407;44.966;19.622;2023-11-21T06:34:57;100393.91;;;7.08;100.00
80102;BME280;69407;44.966;19.622;2023-11-21T06:37:26;100390.69;;;7.48;100.00
80102;BME280;69407;44.966;19.622;2023-11-21T06:39:52;100387.41;;;7.90;100.00
80102;BME280;69407;44.966;19.622;2023-11-21T06:42:18;100391.00;;;8.09;100.00
80102;BME280;69407;44.966;19.622;2023-11-21T06:44:47;100407.69;;;7.15;100.00
80102;BME280;69407;44.966;19.622;2023-11-21T06:47:13;100399.75;;;7.41;100.00
80102;BME280;69407;44.966;19.622;2023-11-21T06:49:39;100398.25;;;7.81;100.00
80102;BME280;69407;44.966;19.622;2023-11-21T06:52:04;100375.75;;;7.96;100.00
80102;BME280;69407;44.966;19.622;2023-11-21T06:54:33;100376.28;;;8.05;100.00
80102;BME280;69407;44.966;19.622;2023-11-21T06:57:00;100383.28;;;7.83;100.00
80102;BME280;69407;44.966;19.622;2023-11-21T06:59:25;100379.13;;;7.77;100.00
80102;BME280;69407;44.966;19.622;2023-11-21T07:01:51;100381.63;;;7.80;100.00
80102;BME280;69407;44.966;19.622;2023-11-21T07:04:16;100397.19;;;7.40;100.00
80102;BME280;69407;44.966;19.622;2023-11-21T07:06:43;100398.53;;;7.50;100.00
80102;BME280;69407;44.966;19.622;2023-11-21T07:09:09;100423.94;;;7.26;100.00
80102;BME280;69407;44.966;19.622;2023-11-21T07:11:35;100430.34;;;7.19;100.00
80102;BME280;69407;44.966;19.622;2023-11-21T07:14:00;100424.47;;;7.11;100.00
80102;BME280;69407;44.966;19.622;2023-11-21T07:16:35;100434.28;;;7.05;100.00
80102;BME280;69407;44.966;19.622;2023-11-21T07:19:03;100436.47;;;7.68;100.00
80102;BME280;69407;44.966;19.622;2023-11-21T07:21:32;100428.00;;;7.83;100.00
80102;BME280;69407;44.966;19.622;2023-11-21T07:23:58;100440.25;;;7.11;100.00
80102;BME280;69407;44.966;19.622;2023-11-21T07:26:23;100430.97;;;7.25;100.00
80102;BME280;69407;44.966;19.622;2023-11-21T07:28:50;100422.69;;;7.11;100.00
80102;BME280;69407;44.966;19.622;2023-11-21T07:31:16;100408.56;;;7.39;100.00
80102;BME280;69407;44.966;19.622;2023-11-21T07:33:41;100399.47;;;7.72;100.00
80102;BME280;69407;44.966;19.622;2023-11-21T07:36:07;100396.22;;;7.89;100.00
80102;BME280;69407;44.966;19.622;2023-11-21T07:38:33;100390.72;;;8.17;100.00
80102;BME280;69407;44.966;19.622;2023-11-21T07:40:58;100385.53;;;8.15;100.00
80102;BME280;69407;44.966;19.622;2023-11-21T07:43:26;100379.53;;;8.12;100.00
80102;BME280;69407;44.966;19.622;2023-11-21T07:45:52;100379.81;;;8.04;100.00
80102;BME280;69407;44.966;19.622;2023-11-21T07:48:17;100374.19;;;7.91;100.00
80102;BME280;69407;44.966;19.622;2023-11-21T07:50:43;100365.50;;;7.89;100.00
80102;BME280;69407;44.966;19.622;2023-11-21T07:53:08;100370.50;;;7.96;100.00
80102;BME280;69407;44.966;19.622;2023-11-21T07:55:34;100380.28;;;7.92;100.00
80102;BME280;69407;44.966;19.622;2023-11-21T07:58:01;100382.53;;;8.25;100.00
80102;BME280;69407;44.966;19.622;2023-11-21T08:00:28;100411.09;;;7.67;100.00
80102;BME280;69407;44.966;19.622;2023-11-21T08:02:56;100430.50;;;7.39;100.00
80102;BME280;69407;44.966;19.622;2023-11-21T08:05:21;100423.59;;;7.60;100.00
80102;BME280;69407;44.966;19.622;2023-11-21T08:07:47;100402.84;;;7.76;100.00
80102;BME280;69407;44.966;19.622;2023-11-21T08:10:12;100380.53;;;8.08;100.00
80102;BME280;69407;44.966;19.622;2023-11-21T08:12:38;100396.13;;;8.14;100.00
80102;BME280;69407;44.966;19.622;2023-11-21T08:15:04;100394.53;;;8.54;100.00
80102;BME280;69407;44.966;19.622;2023-11-21T08:17:30;100415.03;;;7.78;100.00
80102;BME280;69407;44.966;19.622;2023-11-21T08:19:58;100394.13;;;7.97;100.00
80102;BME280;69407;44.966;19.622;2023-11-21T08:22:23;100389.81;;;8.62;100.00
80102;BME280;69407;44.966;19.622;2023-11-21T08:24:50;100366.25;;;8.79;100.00
80102;BME280;69407;44.966;19.622;2023-11-21T08:27:15;100376.84;;;9.18;100.00
80102;BME280;69407;44.966;19.622;2023-11-21T08:29:42;100392.28;;;9.07;100.00
80102;BME280;69407;44.966;19.622;2023-11-21T08:32:07;100381.09;;;9.02;100.00
80102;BME280;69407;44.966;19.622;2023-11-21T08:34:33;100374.34;;;9.54;100.00
80102;BME280;69407;44.966;19.622;2023-11-21T08:36:58;100346.91;;;9.77;100.00
80102;BME280;69407;44.966;19.622;2023-11-21T08:39:24;100352.09;;;9.79;100.00
80102;BME280;69407;44.966;19.622;2023-11-21T08:41:50;100355.59;;;9.98;100.00
80102;BME280;69407;44.966;19.622;2023-11-21T08:44:16;100356.47;;;9.80;100.00
80102;BME280;69407;44.966;19.622;2023-11-21T08:46:43;100358.16;;;9.81;100.00
80102;BME280;69407;44.966;19.622;2023-11-21T08:49:11;100347.66;;;10.17;100.00
80102;BME280;69407;44.966;19.622;2023-11-21T08:51:37;100335.13;;;10.22;100.00
80102;BME280;69407;44.966;19.622;2023-11-21T08:54:03;100328.06;;;10.22;100.00
80102;BME280;69407;44.966;19.622;2023-11-21T08:56:33;100333.06;;;10.46;100.00
80102;BME280;69407;44.966;19.622;2023-11-21T08:58:58;100329.88;;;10.74;100.00
80102;BME280;69407;44.966;19.622;2023-11-21T09:01:25;100326.75;;;10.83;100.00
80102;BME280;69407;44.966;19.622;2023-11-21T09:03:51;100308.13;;;11.02;100.00
80102;BME280;69407;44.966;19.622;2023-11-21T09:06:16;100301.97;;;11.19;100.00
80102;BME280;69407;44.966;19.622;2023-11-21T09:08:42;100294.91;;;11.02;100.00
80102;BME280;69407;44.966;19.622;2023-11-21T09:11:08;100298.38;;;10.86;100.00
80102;BME280;69407;44.966;19.622;2023-11-21T09:13:34;100289.28;;;10.92;100.00
80102;BME280;69407;44.966;19.622;2023-11-21T09:16:00;100285.00;;;11.38;100.00
80102;BME280;69407;44.966;19.622;2023-11-21T09:18:25;100291.09;;;11.56;100.00
80102;BME280;69407;44.966;19.622;2023-11-21T09:20:51;100288.06;;;11.64;100.00
80102;BME280;69407;44.966;19.622;2023-11-21T09:23:16;100289.38;;;10.73;100.00
80102;BME280;69407;44.966;19.622;2023-11-21T09:25:42;100280.25;;;11.29;100.00
80102;BME280;69407;44.966;19.622;2023-11-21T09:28:11;100272.59;;;11.56;100.00
80102;BME280;69407;44.966;19.622;2023-11-21T09:30:37;100263.97;;;11.68;100.00
80102;BME280;69407;44.966;19.622;2023-11-21T09:33:03;100265.78;;;11.84;100.00
80102;BME280;69407;44.966;19.622;2023-11-21T09:35:33;100259.72;;;11.82;100.00
80102;BME280;69407;44.966;19.622;2023-11-21T09:38:00;100264.66;;;11.40;100.00
80102;BME280;69407;44.966;19.622;2023-11-21T09:40:27;100266.38;;;11.08;100.00
80102;BME280;69407;44.966;19.622;2023-11-21T09:42:56;100265.00;;;11.66;100.00
80102;BME280;69407;44.966;19.622;2023-11-21T09:45:29;100262.94;;;11.71;100.00
80102;BME280;69407;44.966;19.622;2023-11-21T09:47:59;100260.56;;;11.66;100.00
80102;BME280;69407;44.966;19.622;2023-11-21T09:50:25;100263.03;;;11.69;100.00
80102;BME280;69407;44.966;19.622;2023-11-21T09:53:11;100258.00;;;11.81;100.00
80102;BME280;69407;44.966;19.622;2023-11-21T09:55:42;100261.41;;;11.83;100.00
80102;BME280;69407;44.966;19.622;2023-11-21T09:58:09;100257.53;;;11.72;100.00
80102;BME280;69407;44.966;19.622;2023-11-21T10:00:37;100265.41;;;11.58;100.00
80102;BME280;69407;44.966;19.622;2023-11-21T10:03:04;100279.00;;;11.03;100.00
80102;BME280;69407;44.966;19.622;2023-11-21T10:05:30;100279.59;;;11.08;100.00
80102;BME280;69407;44.966;19.622;2023-11-21T10:07:59;100275.13;;;10.93;100.00
80102;BME280;69407;44.966;19.622;2023-11-21T10:10:27;100271.41;;;11.13;100.00
80102;BME280;69407;44.966;19.622;2023-11-21T10:13:01;100286.72;;;10.73;100.00
80102;BME280;69407;44.966;19.622;2023-11-21T10:15:29;100279.81;;;10.71;100.00
80102;BME280;69407;44.966;19.622;2023-11-21T10:17:56;100282.44;;;10.88;100.00
80102;BME280;69407;44.966;19.622;2023-11-21T10:20:23;100276.19;;;10.56;100.00
80102;BME280;69407;44.966;19.622;2023-11-21T10:22:50;100285.94;;;10.19;100.00
80102;BME280;69407;44.966;19.622;2023-11-21T10:25:15;100273.97;;;10.81;100.00
80102;BME280;69407;44.966;19.622;2023-11-21T10:27:42;100269.56;;;11.15;100.00
80102;BME280;69407;44.966;19.622;2023-11-21T10:30:09;100277.00;;;10.91;100.00
80102;BME280;69407;44.966;19.622;2023-11-21T10:32:41;100274.78;;;10.66;100.00
80102;BME280;69407;44.966;19.622;2023-11-21T10:35:08;100281.56;;;10.88;100.00
80102;BME280;69407;44.966;19.622;2023-11-21T10:37:36;100277.31;;;10.85;100.00
80102;BME280;69407;44.966;19.622;2023-11-21T10:40:09;100271.13;;;10.69;100.00
80102;BME280;69407;44.966;19.622;2023-11-21T10:42:40;100272.50;;;10.76;100.00
80102;BME280;69407;44.966;19.622;2023-11-21T10:45:07;100278.19;;;10.34;100.00
80102;BME280;69407;44.966;19.622;2023-11-21T10:47:44;100273.03;;;10.82;100.00
80102;BME280;69407;44.966;19.622;2023-11-21T10:50:10;100272.22;;;10.98;100.00
80102;BME280;69407;44.966;19.622;2023-11-21T10:52:37;100278.28;;;11.00;100.00
80102;BME280;69407;44.966;19.622;2023-11-21T10:55:24;100281.16;;;10.79;100.00
80102;BME280;69407;44.966;19.622;2023-11-21T10:57:53;100288.59;;;10.37;100.00
80102;BME280;69407;44.966;19.622;2023-11-21T11:00:20;100293.44;;;10.10;100.00
80102;BME280;69407;44.966;19.622;2023-11-21T11:02:51;100283.00;;;10.25;100.00
80102;BME280;69407;44.966;19.622;2023-11-21T11:05:20;100295.75;;;10.35;100.00
80102;BME280;69407;44.966;19.622;2023-11-21T11:07:48;100271.81;;;10.72;100.00
80102;BME280;69407;44.966;19.622;2023-11-21T11:10:20;100274.53;;;9.83;100.00
80102;BME280;69407;44.966;19.622;2023-11-21T11:12:48;100270.56;;;10.27;100.00
80102;BME280;69407;44.966;19.622;2023-11-21T11:15:16;100259.84;;;10.65;100.00
80102;BME280;69407;44.966;19.622;2023-11-21T11:17:42;100270.91;;;10.56;100.00
80102;BME280;69407;44.966;19.622;2023-11-21T11:20:13;100274.56;;;10.17;100.00
80102;BME280;69407;44.966;19.622;2023-11-21T11:36:46;100278.38;;;9.57;100.00
80102;BME280;69407;44.966;19.622;2023-11-21T11:39:28;100282.22;;;9.68;100.00
80102;BME280;69407;44.966;19.622;2023-11-21T11:41:59;100282.72;;;10.32;100.00
80102;BME280;69407;44.966;19.622;2023-11-21T11:47:27;100282.94;;;10.44;100.00
80102;BME280;69407;44.966;19.622;2023-11-21T11:50:11;100287.91;;;10.33;100.00
80102;BME280;69407;44.966;19.622;2023-11-21T11:52:52;100285.09;;;10.36;100.00
80102;BME280;69407;44.966;19.622;2023-11-21T11:55:20;100281.22;;;10.26;100.00
80102;BME280;69407;44.966;19.622;2023-11-21T11:57:51;100284.41;;;10.33;100.00
80102;BME280;69407;44.966;19.622;2023-11-21T12:02:56;100274.25;;;10.42;100.00
80102;BME280;69407;44.966;19.622;2023-11-21T12:05:23;100269.88;;;10.41;100.00
80102;BME280;69407;44.966;19.622;2023-11-21T12:07:50;100270.78;;;10.06;100.00
80102;BME280;69407;44.966;19.622;2023-11-21T12:10:25;100278.09;;;9.82;100.00
80102;BME280;69407;44.966;19.622;2023-11-21T12:12:53;100273.53;;;9.85;100.00
80102;BME280;69407;44.966;19.622;2023-11-21T12:15:19;100271.09;;;9.81;100.00
80102;BME280;69407;44.966;19.622;2023-11-21T12:17:46;100270.63;;;10.09;100.00
80102;BME280;69407;44.966;19.622;2023-11-21T12:20:18;100272.75;;;9.83;100.00
80102;BME280;69407;44.966;19.622;2023-11-21T12:22:54;100267.81;;;9.19;100.00
80102;BME280;69407;44.966;19.622;2023-11-21T12:25:27;100280.06;;;9.01;100.00
80102;BME280;69407;44.966;19.622;2023-11-21T12:28:00;100274.09;;;9.73;100.00
80102;BME280;69407;44.966;19.622;2023-11-21T12:30:28;100268.44;;;9.81;100.00
80102;BME280;69407;44.966;19.622;2023-11-21T12:32:57;100269.94;;;8.92;100.00
80102;BME280;69407;44.966;19.622;2023-11-21T12:35:27;100276.25;;;9.65;100.00
80102;BME280;69407;44.966;19.622;2023-11-21T12:37:54;100268.84;;;9.90;100.00
80102;BME280;69407;44.966;19.622;2023-11-21T12:40:22;100264.94;;;9.99;100.00
80102;BME280;69407;44.966;19.622;2023-11-21T12:42:50;100257.44;;;9.90;100.00
80102;BME280;69407;44.966;19.622;2023-11-21T12:50:11;100264.69;;;9.30;100.00
80102;BME280;69407;44.966;19.622;2023-11-21T12:52:44;100277.78;;;9.33;100.00
80102;BME280;69407;44.966;19.622;2023-11-21T12:55:17;100268.44;;;9.81;100.00
80102;BME280;69407;44.966;19.622;2023-11-21T12:57:47;100265.50;;;10.06;100.00
80102;BME280;69407;44.966;19.622;2023-11-21T13:00:16;100266.69;;;9.06;100.00
80102;BME280;69407;44.966;19.622;2023-11-21T13:02:55;100266.41;;;9.12;100.00